Llanbedrgoch, United Kingdom
Current Conditions -  °F | °C
As of 4:18 PM on Friday 21 Nov 2014 (Local Time) from EGOV Reporting Station
Light Rain Light Rain  
Wind Chill: 46°   Ceiling: 2000
Heat Index: 48°   Visibility: 2.3mi
Dew Point: 46°   Wind: 6mph
Humidity: 93%   Direction: 80°E
Pressure: 29.77"   Gusts: NA
Location:  53.3°N, 4.25°W
Report Text: EGOV 211618Z 08005KT 3700 -RA OVC020 09/08 Q1008 GRN TEMPO 6000 WHT
Loading
Personal Weather Stations






























Interactive Weather Map New forecast layout! Learn more

10-Day Weather Forecast

Advertisements
Track Severe Weather on mobile